sensor_id;sensor_type;location;lat;lon;timestamp;P1;durP1;ratioP1;P2;durP2;ratioP2
12177;SDS011;6152;48.728;9.256;2023-04-24T00:02:02;0.40;;;0.40;;
12177;SDS011;6152;48.728;9.256;2023-04-24T00:04:29;0.30;;;0.30;;
12177;SDS011;6152;48.728;9.256;2023-04-24T00:06:57;0.95;;;0.30;;
12177;SDS011;6152;48.728;9.256;2023-04-24T00:09:25;0.35;;;0.22;;
12177;SDS011;6152;48.728;9.256;2023-04-24T00:11:51;0.22;;;0.20;;
12177;SDS011;6152;48.728;9.256;2023-04-24T00:14:17;1.02;;;0.40;;
12177;SDS011;6152;48.728;9.256;2023-04-24T00:16:43;0.98;;;0.30;;
12177;SDS011;6152;48.728;9.256;2023-04-24T00:19:09;0.57;;;0.30;;
12177;SDS011;6152;48.728;9.256;2023-04-24T00:21:37;0.30;;;0.30;;
12177;SDS011;6152;48.728;9.256;2023-04-24T00:24:03;0.47;;;0.20;;
12177;SDS011;6152;48.728;9.256;2023-04-24T00:26:29;2.65;;;0.30;;
12177;SDS011;6152;48.728;9.256;2023-04-24T00:28:56;0.90;;;0.32;;
12177;SDS011;6152;48.728;9.256;2023-04-24T00:31:22;2.05;;;0.32;;
12177;SDS011;6152;48.728;9.256;2023-04-24T00:33:48;0.85;;;0.85;;
12177;SDS011;6152;48.728;9.256;2023-04-24T00:36:14;0.22;;;0.22;;
12177;SDS011;6152;48.728;9.256;2023-04-24T00:38:40;1.95;;;0.30;;
12177;SDS011;6152;48.728;9.256;2023-04-24T00:41:06;0.40;;;0.40;;
12177;SDS011;6152;48.728;9.256;2023-04-24T00:43:32;0.35;;;0.30;;
12177;SDS011;6152;48.728;9.256;2023-04-24T00:45:59;1.77;;;0.55;;
12177;SDS011;6152;48.728;9.256;2023-04-24T00:48:26;0.52;;;0.40;;
12177;SDS011;6152;48.728;9.256;2023-04-24T00:50:53;1.33;;;0.40;;
12177;SDS011;6152;48.728;9.256;2023-04-24T00:53:20;1.63;;;0.40;;
12177;SDS011;6152;48.728;9.256;2023-04-24T00:55:46;1.48;;;0.50;;
12177;SDS011;6152;48.728;9.256;2023-04-24T00:58:12;0.30;;;0.30;;
12177;SDS011;6152;48.728;9.256;2023-04-24T01:00:38;0.52;;;0.30;;
12177;SDS011;6152;48.728;9.256;2023-04-24T01:03:05;0.30;;;0.30;;
12177;SDS011;6152;48.728;9.256;2023-04-24T01:05:32;0.93;;;0.30;;
12177;SDS011;6152;48.728;9.256;2023-04-24T01:07:59;2.30;;;0.40;;
12177;SDS011;6152;48.728;9.256;2023-04-24T01:10:26;0.70;;;0.30;;
12177;SDS011;6152;48.728;9.256;2023-04-24T01:12:54;0.77;;;0.38;;
12177;SDS011;6152;48.728;9.256;2023-04-24T01:15:21;2.17;;;0.40;;
12177;SDS011;6152;48.728;9.256;2023-04-24T01:17:47;1.30;;;0.40;;
12177;SDS011;6152;48.728;9.256;2023-04-24T01:20:13;0.77;;;0.30;;
12177;SDS011;6152;48.728;9.256;2023-04-24T01:22:40;2.05;;;0.20;;
12177;SDS011;6152;48.728;9.256;2023-04-24T01:25:07;0.20;;;0.20;;
12177;SDS011;6152;48.728;9.256;2023-04-24T01:27:33;0.95;;;0.20;;
12177;SDS011;6152;48.728;9.256;2023-04-24T01:30:00;0.20;;;0.20;;
12177;SDS011;6152;48.728;9.256;2023-04-24T01:32:26;1.75;;;0.30;;
12177;SDS011;6152;48.728;9.256;2023-04-24T01:34:53;0.70;;;0.30;;
12177;SDS011;6152;48.728;9.256;2023-04-24T01:37:20;2.30;;;0.30;;
12177;SDS011;6152;48.728;9.256;2023-04-24T01:39:46;1.80;;;0.35;;
12177;SDS011;6152;48.728;9.256;2023-04-24T01:42:13;1.38;;;0.30;;
12177;SDS011;6152;48.728;9.256;2023-04-24T01:44:39;0.20;;;0.20;;
12177;SDS011;6152;48.728;9.256;2023-04-24T01:47:06;0.40;;;0.30;;
12177;SDS011;6152;48.728;9.256;2023-04-24T01:49:33;1.67;;;0.35;;
12177;SDS011;6152;48.728;9.256;2023-04-24T01:51:59;0.30;;;0.30;;
12177;SDS011;6152;48.728;9.256;2023-04-24T01:54:25;2.72;;;0.40;;
12177;SDS011;6152;48.728;9.256;2023-04-24T01:56:51;0.40;;;0.30;;
12177;SDS011;6152;48.728;9.256;2023-04-24T01:59:18;0.20;;;0.20;;
12177;SDS011;6152;48.728;9.256;2023-04-24T02:01:48;0.20;;;0.20;;
12177;SDS011;6152;48.728;9.256;2023-04-24T02:04:14;0.30;;;0.20;;
12177;SDS011;6152;48.728;9.256;2023-04-24T02:06:40;1.55;;;0.30;;
12177;SDS011;6152;48.728;9.256;2023-04-24T02:09:06;1.15;;;0.30;;
12177;SDS011;6152;48.728;9.256;2023-04-24T02:11:32;1.15;;;0.30;;
12177;SDS011;6152;48.728;9.256;2023-04-24T02:13:59;1.15;;;0.28;;
12177;SDS011;6152;48.728;9.256;2023-04-24T02:16:25;1.05;;;0.30;;
12177;SDS011;6152;48.728;9.256;2023-04-24T02:18:51;0.50;;;0.40;;
12177;SDS011;6152;48.728;9.256;2023-04-24T02:21:17;0.88;;;0.30;;
12177;SDS011;6152;48.728;9.256;2023-04-24T02:23:43;1.00;;;0.25;;
12177;SDS011;6152;48.728;9.256;2023-04-24T02:26:09;0.22;;;0.22;;
12177;SDS011;6152;48.728;9.256;2023-04-24T02:28:36;2.10;;;0.30;;
12177;SDS011;6152;48.728;9.256;2023-04-24T02:31:02;0.45;;;0.30;;
12177;SDS011;6152;48.728;9.256;2023-04-24T02:33:28;0.57;;;0.30;;
12177;SDS011;6152;48.728;9.256;2023-04-24T02:35:54;1.08;;;0.30;;
12177;SDS011;6152;48.728;9.256;2023-04-24T02:38:20;1.38;;;0.40;;
12177;SDS011;6152;48.728;9.256;2023-04-24T02:40:46;1.92;;;0.43;;
12177;SDS011;6152;48.728;9.256;2023-04-24T02:43:12;0.40;;;0.40;;
12177;SDS011;6152;48.728;9.256;2023-04-24T02:45:38;1.95;;;0.50;;
12177;SDS011;6152;48.728;9.256;2023-04-24T02:48:04;2.03;;;0.40;;
12177;SDS011;6152;48.728;9.256;2023-04-24T02:50:31;1.20;;;0.40;;
12177;SDS011;6152;48.728;9.256;2023-04-24T02:52:58;0.50;;;0.30;;
12177;SDS011;6152;48.728;9.256;2023-04-24T02:55:24;0.57;;;0.43;;
12177;SDS011;6152;48.728;9.256;2023-04-24T02:57:50;1.38;;;0.30;;
12177;SDS011;6152;48.728;9.256;2023-04-24T03:00:16;0.50;;;0.20;;
12177;SDS011;6152;48.728;9.256;2023-04-24T03:02:43;0.95;;;0.30;;
12177;SDS011;6152;48.728;9.256;2023-04-24T03:05:09;0.30;;;0.30;;
12177;SDS011;6152;48.728;9.256;2023-04-24T03:07:36;0.80;;;0.20;;
12177;SDS011;6152;48.728;9.256;2023-04-24T03:10:03;1.10;;;0.30;;
12177;SDS011;6152;48.728;9.256;2023-04-24T03:12:30;0.70;;;0.20;;
12177;SDS011;6152;48.728;9.256;2023-04-24T03:14:56;0.50;;;0.30;;
12177;SDS011;6152;48.728;9.256;2023-04-24T03:17:22;0.28;;;0.28;;
12177;SDS011;6152;48.728;9.256;2023-04-24T03:19:49;0.20;;;0.20;;
12177;SDS011;6152;48.728;9.256;2023-04-24T03:22:15;1.00;;;0.28;;
12177;SDS011;6152;48.728;9.256;2023-04-24T03:24:41;2.05;;;0.22;;
12177;SDS011;6152;48.728;9.256;2023-04-24T03:27:07;0.40;;;0.30;;
12177;SDS011;6152;48.728;9.256;2023-04-24T03:29:33;0.30;;;0.20;;
12177;SDS011;6152;48.728;9.256;2023-04-24T03:31:59;2.30;;;0.52;;
12177;SDS011;6152;48.728;9.256;2023-04-24T03:34:25;1.30;;;0.30;;
12177;SDS011;6152;48.728;9.256;2023-04-24T03:36:51;0.38;;;0.30;;
12177;SDS011;6152;48.728;9.256;2023-04-24T03:39:17;0.35;;;0.35;;
12177;SDS011;6152;48.728;9.256;2023-04-24T03:41:44;2.00;;;0.30;;
12177;SDS011;6152;48.728;9.256;2023-04-24T03:44:10;0.30;;;0.30;;
12177;SDS011;6152;48.728;9.256;2023-04-24T03:46:36;1.98;;;0.50;;
12177;SDS011;6152;48.728;9.256;2023-04-24T03:49:02;0.45;;;0.40;;
12177;SDS011;6152;48.728;9.256;2023-04-24T03:51:28;4.15;;;0.45;;
12177;SDS011;6152;48.728;9.256;2023-04-24T03:53:56;1.88;;;0.28;;
12177;SDS011;6152;48.728;9.256;2023-04-24T03:56:22;1.10;;;0.65;;
12177;SDS011;6152;48.728;9.256;2023-04-24T03:58:48;0.30;;;0.30;;
12177;SDS011;6152;48.728;9.256;2023-04-24T04:01:15;0.52;;;0.40;;
12177;SDS011;6152;48.728;9.256;2023-04-24T04:03:41;0.30;;;0.30;;
12177;SDS011;6152;48.728;9.256;2023-04-24T04:06:07;1.17;;;0.50;;
12177;SDS011;6152;48.728;9.256;2023-04-24T04:08:36;0.68;;;0.50;;
12177;SDS011;6152;48.728;9.256;2023-04-24T04:11:02;0.40;;;0.40;;
12177;SDS011;6152;48.728;9.256;2023-04-24T04:13:28;1.65;;;0.40;;
12177;SDS011;6152;48.728;9.256;2023-04-24T04:15:54;0.30;;;0.30;;
12177;SDS011;6152;48.728;9.256;2023-04-24T04:18:20;1.30;;;0.30;;
12177;SDS011;6152;48.728;9.256;2023-04-24T04:20:46;1.00;;;0.40;;
12177;SDS011;6152;48.728;9.256;2023-04-24T04:23:12;0.40;;;0.40;;
12177;SDS011;6152;48.728;9.256;2023-04-24T04:25:38;0.40;;;0.40;;
12177;SDS011;6152;48.728;9.256;2023-04-24T04:28:04;1.85;;;0.40;;
12177;SDS011;6152;48.728;9.256;2023-04-24T04:30:31;0.50;;;0.40;;
12177;SDS011;6152;48.728;9.256;2023-04-24T04:32:57;0.45;;;0.30;;
12177;SDS011;6152;48.728;9.256;2023-04-24T04:35:24;1.45;;;0.22;;
12177;SDS011;6152;48.728;9.256;2023-04-24T04:37:50;0.35;;;0.30;;
12177;SDS011;6152;48.728;9.256;2023-04-24T04:40:16;1.90;;;0.30;;
12177;SDS011;6152;48.728;9.256;2023-04-24T04:42:42;0.75;;;0.40;;
12177;SDS011;6152;48.728;9.256;2023-04-24T04:45:11;0.85;;;0.40;;
12177;SDS011;6152;48.728;9.256;2023-04-24T04:47:37;1.17;;;0.40;;
12177;SDS011;6152;48.728;9.256;2023-04-24T04:50:04;1.67;;;0.60;;
12177;SDS011;6152;48.728;9.256;2023-04-24T04:52:31;1.15;;;0.57;;
12177;SDS011;6152;48.728;9.256;2023-04-24T04:54:57;1.33;;;0.68;;
12177;SDS011;6152;48.728;9.256;2023-04-24T04:57:24;1.25;;;0.88;;
12177;SDS011;6152;48.728;9.256;2023-04-24T04:59:50;0.68;;;0.68;;
12177;SDS011;6152;48.728;9.256;2023-04-24T05:02:16;0.75;;;0.75;;
12177;SDS011;6152;48.728;9.256;2023-04-24T05:04:42;0.65;;;0.60;;
12177;SDS011;6152;48.728;9.256;2023-04-24T05:07:08;1.15;;;0.82;;
12177;SDS011;6152;48.728;9.256;2023-04-24T05:09:35;1.38;;;0.80;;
12177;SDS011;6152;48.728;9.256;2023-04-24T05:12:01;1.58;;;0.88;;
12177;SDS011;6152;48.728;9.256;2023-04-24T05:14:27;1.85;;;1.02;;
12177;SDS011;6152;48.728;9.256;2023-04-24T05:16:53;1.83;;;0.90;;
12177;SDS011;6152;48.728;9.256;2023-04-24T05:19:19;3.63;;;0.98;;
12177;SDS011;6152;48.728;9.256;2023-04-24T05:21:45;1.40;;;1.02;;
12177;SDS011;6152;48.728;9.256;2023-04-24T05:24:11;1.80;;;1.42;;
12177;SDS011;6152;48.728;9.256;2023-04-24T05:26:38;0.80;;;0.80;;
12177;SDS011;6152;48.728;9.256;2023-04-24T05:29:04;1.08;;;1.00;;
12177;SDS011;6152;48.728;9.256;2023-04-24T05:31:30;1.25;;;1.10;;
12177;SDS011;6152;48.728;9.256;2023-04-24T05:33:56;0.70;;;0.70;;
12177;SDS011;6152;48.728;9.256;2023-04-24T05:36:23;1.80;;;1.02;;
12177;SDS011;6152;48.728;9.256;2023-04-24T05:38:49;1.15;;;0.85;;
12177;SDS011;6152;48.728;9.256;2023-04-24T05:41:15;0.80;;;0.80;;
12177;SDS011;6152;48.728;9.256;2023-04-24T05:43:41;1.33;;;1.00;;
12177;SDS011;6152;48.728;9.256;2023-04-24T05:46:07;0.90;;;0.90;;
12177;SDS011;6152;48.728;9.256;2023-04-24T05:48:33;0.97;;;0.80;;
12177;SDS011;6152;48.728;9.256;2023-04-24T05:51:00;2.00;;;0.87;;
12177;SDS011;6152;48.728;9.256;2023-04-24T05:53:26;1.08;;;0.85;;
12177;SDS011;6152;48.728;9.256;2023-04-24T05:55:52;0.80;;;0.80;;
12177;SDS011;6152;48.728;9.256;2023-04-24T05:58:18;1.88;;;0.90;;
12177;SDS011;6152;48.728;9.256;2023-04-24T06:00:44;1.85;;;1.00;;
12177;SDS011;6152;48.728;9.256;2023-04-24T06:03:11;0.93;;;0.82;;
12177;SDS011;6152;48.728;9.256;2023-04-24T06:05:37;0.82;;;0.82;;
12177;SDS011;6152;48.728;9.256;2023-04-24T06:08:04;1.52;;;1.10;;
12177;SDS011;6152;48.728;9.256;2023-04-24T06:10:30;1.02;;;0.95;;
12177;SDS011;6152;48.728;9.256;2023-04-24T06:12:56;1.40;;;0.90;;
12177;SDS011;6152;48.728;9.256;2023-04-24T06:15:25;2.92;;;1.55;;
12177;SDS011;6152;48.728;9.256;2023-04-24T06:17:57;1.65;;;1.00;;
12177;SDS011;6152;48.728;9.256;2023-04-24T06:20:24;2.58;;;1.42;;
12177;SDS011;6152;48.728;9.256;2023-04-24T06:22:50;1.38;;;1.27;;
12177;SDS011;6152;48.728;9.256;2023-04-24T06:25:17;1.55;;;1.23;;
12177;SDS011;6152;48.728;9.256;2023-04-24T06:27:44;1.40;;;1.30;;
12177;SDS011;6152;48.728;9.256;2023-04-24T06:30:10;1.45;;;1.35;;
12177;SDS011;6152;48.728;9.256;2023-04-24T06:32:36;1.27;;;1.20;;
12177;SDS011;6152;48.728;9.256;2023-04-24T06:35:03;1.20;;;1.10;;
12177;SDS011;6152;48.728;9.256;2023-04-24T06:37:29;1.40;;;1.30;;
12177;SDS011;6152;48.728;9.256;2023-04-24T06:39:57;1.85;;;1.13;;
12177;SDS011;6152;48.728;9.256;2023-04-24T06:42:23;1.67;;;1.17;;
12177;SDS011;6152;48.728;9.256;2023-04-24T06:44:49;1.58;;;1.35;;
12177;SDS011;6152;48.728;9.256;2023-04-24T06:47:15;2.83;;;1.65;;
12177;SDS011;6152;48.728;9.256;2023-04-24T06:49:42;2.42;;;1.48;;
12177;SDS011;6152;48.728;9.256;2023-04-24T06:52:08;2.35;;;1.20;;
12177;SDS011;6152;48.728;9.256;2023-04-24T06:54:34;2.53;;;1.60;;
12177;SDS011;6152;48.728;9.256;2023-04-24T06:57:00;1.13;;;1.08;;
12177;SDS011;6152;48.728;9.256;2023-04-24T06:59:28;3.08;;;1.15;;
12177;SDS011;6152;48.728;9.256;2023-04-24T07:01:54;1.13;;;1.00;;
12177;SDS011;6152;48.728;9.256;2023-04-24T07:04:21;1.42;;;1.10;;
12177;SDS011;6152;48.728;9.256;2023-04-24T07:06:47;0.88;;;0.88;;
12177;SDS011;6152;48.728;9.256;2023-04-24T07:09:19;0.98;;;0.85;;
12177;SDS011;6152;48.728;9.256;2023-04-24T07:11:45;0.90;;;0.90;;
12177;SDS011;6152;48.728;9.256;2023-04-24T07:14:12;1.13;;;1.10;;
12177;SDS011;6152;48.728;9.256;2023-04-24T07:16:38;1.70;;;0.93;;
12177;SDS011;6152;48.728;9.256;2023-04-24T07:19:04;1.35;;;0.90;;
12177;SDS011;6152;48.728;9.256;2023-04-24T07:21:31;1.08;;;1.00;;
12177;SDS011;6152;48.728;9.256;2023-04-24T07:23:57;1.73;;;1.02;;
12177;SDS011;6152;48.728;9.256;2023-04-24T07:26:24;0.82;;;0.80;;
12177;SDS011;6152;48.728;9.256;2023-04-24T07:28:51;0.88;;;0.88;;
12177;SDS011;6152;48.728;9.256;2023-04-24T07:31:17;0.90;;;0.80;;
12177;SDS011;6152;48.728;9.256;2023-04-24T07:33:43;1.13;;;0.77;;
12177;SDS011;6152;48.728;9.256;2023-04-24T07:36:10;0.70;;;0.68;;
12177;SDS011;6152;48.728;9.256;2023-04-24T07:38:41;1.02;;;0.68;;
12177;SDS011;6152;48.728;9.256;2023-04-24T07:41:07;0.95;;;0.68;;
12177;SDS011;6152;48.728;9.256;2023-04-24T07:43:34;0.60;;;0.60;;
12177;SDS011;6152;48.728;9.256;2023-04-24T07:46:01;0.70;;;0.70;;
12177;SDS011;6152;48.728;9.256;2023-04-24T07:48:27;1.65;;;0.60;;
12177;SDS011;6152;48.728;9.256;2023-04-24T07:50:53;1.00;;;0.60;;
12177;SDS011;6152;48.728;9.256;2023-04-24T07:53:20;1.23;;;0.80;;
12177;SDS011;6152;48.728;9.256;2023-04-24T07:55:46;1.27;;;1.15;;
12177;SDS011;6152;48.728;9.256;2023-04-24T07:58:12;1.05;;;0.70;;
12177;SDS011;6152;48.728;9.256;2023-04-24T08:00:38;1.73;;;0.68;;
12177;SDS011;6152;48.728;9.256;2023-04-24T08:03:04;0.60;;;0.47;;
12177;SDS011;6152;48.728;9.256;2023-04-24T08:05:30;0.60;;;0.47;;
12177;SDS011;6152;48.728;9.256;2023-04-24T08:07:57;0.63;;;0.63;;
12177;SDS011;6152;48.728;9.256;2023-04-24T08:10:23;1.13;;;0.70;;
12177;SDS011;6152;48.728;9.256;2023-04-24T08:12:50;2.08;;;0.60;;
12177;SDS011;6152;48.728;9.256;2023-04-24T08:15:16;0.50;;;0.50;;
12177;SDS011;6152;48.728;9.256;2023-04-24T08:17:43;0.57;;;0.40;;
12177;SDS011;6152;48.728;9.256;2023-04-24T08:20:10;2.40;;;0.40;;
12177;SDS011;6152;48.728;9.256;2023-04-24T08:22:41;1.65;;;0.60;;
12177;SDS011;6152;48.728;9.256;2023-04-24T08:25:08;2.28;;;0.50;;
12177;SDS011;6152;48.728;9.256;2023-04-24T08:27:36;0.75;;;0.50;;
12177;SDS011;6152;48.728;9.256;2023-04-24T08:30:02;1.08;;;0.60;;
12177;SDS011;6152;48.728;9.256;2023-04-24T08:32:30;1.00;;;0.50;;
12177;SDS011;6152;48.728;9.256;2023-04-24T08:34:56;0.85;;;0.60;;
12177;SDS011;6152;48.728;9.256;2023-04-24T08:37:23;1.60;;;0.50;;
12177;SDS011;6152;48.728;9.256;2023-04-24T08:39:50;1.35;;;0.77;;
12177;SDS011;6152;48.728;9.256;2023-04-24T08:42:17;0.77;;;0.40;;
12177;SDS011;6152;48.728;9.256;2023-04-24T08:44:44;0.40;;;0.40;;
12177;SDS011;6152;48.728;9.256;2023-04-24T08:47:11;0.25;;;0.25;;
12177;SDS011;6152;48.728;9.256;2023-04-24T08:49:38;0.63;;;0.50;;
12177;SDS011;6152;48.728;9.256;2023-04-24T08:52:07;3.80;;;0.50;;
12177;SDS011;6152;48.728;9.256;2023-04-24T08:54:34;0.70;;;0.70;;
12177;SDS011;6152;48.728;9.256;2023-04-24T08:57:01;0.50;;;0.40;;
12177;SDS011;6152;48.728;9.256;2023-04-24T08:59:28;0.47;;;0.47;;
12177;SDS011;6152;48.728;9.256;2023-04-24T09:01:56;1.00;;;0.40;;
12177;SDS011;6152;48.728;9.256;2023-04-24T09:04:23;1.88;;;0.70;;
12177;SDS011;6152;48.728;9.256;2023-04-24T09:06:56;0.50;;;0.50;;
12177;SDS011;6152;48.728;9.256;2023-04-24T09:09:23;1.75;;;0.40;;
12177;SDS011;6152;48.728;9.256;2023-04-24T09:11:50;1.85;;;0.50;;
12177;SDS011;6152;48.728;9.256;2023-04-24T09:14:19;0.60;;;0.50;;
12177;SDS011;6152;48.728;9.256;2023-04-24T09:16:46;0.45;;;0.45;;
12177;SDS011;6152;48.728;9.256;2023-04-24T09:19:13;0.57;;;0.57;;
12177;SDS011;6152;48.728;9.256;2023-04-24T09:21:39;0.73;;;0.50;;
12177;SDS011;6152;48.728;9.256;2023-04-24T09:24:17;0.52;;;0.50;;
12177;SDS011;6152;48.728;9.256;2023-04-24T09:26:47;1.08;;;0.60;;
12177;SDS011;6152;48.728;9.256;2023-04-24T09:29:17;0.93;;;0.80;;
12177;SDS011;6152;48.728;9.256;2023-04-24T09:31:44;1.65;;;0.60;;
12177;SDS011;6152;48.728;9.256;2023-04-24T09:34:11;2.35;;;0.63;;
12177;SDS011;6152;48.728;9.256;2023-04-24T09:36:38;1.45;;;0.63;;
12177;SDS011;6152;48.728;9.256;2023-04-24T09:39:09;1.05;;;0.40;;
12177;SDS011;6152;48.728;9.256;2023-04-24T09:41:49;2.00;;;0.40;;
12177;SDS011;6152;48.728;9.256;2023-04-24T09:44:18;1.15;;;0.50;;
12177;SDS011;6152;48.728;9.256;2023-04-24T09:49:25;0.40;;;0.40;;
12177;SDS011;6152;48.728;9.256;2023-04-24T09:52:02;2.08;;;0.40;;
12177;SDS011;6152;48.728;9.256;2023-04-24T09:54:32;1.08;;;0.30;;
12177;SDS011;6152;48.728;9.256;2023-04-24T09:56:58;1.10;;;0.70;;
12177;SDS011;6152;48.728;9.256;2023-04-24T09:59:25;1.00;;;0.50;;
12177;SDS011;6152;48.728;9.256;2023-04-24T10:01:51;0.80;;;0.40;;
12177;SDS011;6152;48.728;9.256;2023-04-24T10:04:18;0.57;;;0.30;;
12177;SDS011;6152;48.728;9.256;2023-04-24T10:06:44;0.20;;;0.20;;
12177;SDS011;6152;48.728;9.256;2023-04-24T10:09:11;0.32;;;0.32;;
12177;SDS011;6152;48.728;9.256;2023-04-24T10:11:41;0.32;;;0.30;;
12177;SDS011;6152;48.728;9.256;2023-04-24T10:14:12;3.60;;;0.30;;
12177;SDS011;6152;48.728;9.256;2023-04-24T10:16:40;0.77;;;0.30;;
12177;SDS011;6152;48.728;9.256;2023-04-24T10:19:07;0.30;;;0.30;;
12177;SDS011;6152;48.728;9.256;2023-04-24T10:21:34;0.40;;;0.40;;
12177;SDS011;6152;48.728;9.256;2023-04-24T10:24:07;0.40;;;0.40;;
12177;SDS011;6152;48.728;9.256;2023-04-24T10:26:34;0.28;;;0.28;;
12177;SDS011;6152;48.728;9.256;2023-04-24T10:29:01;0.95;;;0.30;;
12177;SDS011;6152;48.728;9.256;2023-04-24T10:31:30;0.30;;;0.30;;
12177;SDS011;6152;48.728;9.256;2023-04-24T10:33:58;2.03;;;0.47;;
12177;SDS011;6152;48.728;9.256;2023-04-24T10:36:25;0.57;;;0.40;;
12177;SDS011;6152;48.728;9.256;2023-04-24T10:38:54;0.75;;;0.40;;
12177;SDS011;6152;48.728;9.256;2023-04-24T10:41:24;0.45;;;0.43;;
12177;SDS011;6152;48.728;9.256;2023-04-24T10:44:07;0.57;;;0.30;;
12177;SDS011;6152;48.728;9.256;2023-04-24T10:46:38;0.93;;;0.30;;
12177;SDS011;6152;48.728;9.256;2023-04-24T10:49:09;0.28;;;0.28;;
12177;SDS011;6152;48.728;9.256;2023-04-24T10:51:45;0.40;;;0.40;;
12177;SDS011;6152;48.728;9.256;2023-04-24T10:54:26;0.30;;;0.30;;
12177;SDS011;6152;48.728;9.256;2023-04-24T10:56:52;0.35;;;0.35;;
12177;SDS011;6152;48.728;9.256;2023-04-24T10:59:38;0.63;;;0.40;;
12177;SDS011;6152;48.728;9.256;2023-04-24T11:02:04;0.85;;;0.20;;
12177;SDS011;6152;48.728;9.256;2023-04-24T11:04:33;0.20;;;0.20;;
12177;SDS011;6152;48.728;9.256;2023-04-24T11:07:00;0.77;;;0.30;;
12177;SDS011;6152;48.728;9.256;2023-04-24T11:09:30;0.30;;;0.30;;
12177;SDS011;6152;48.728;9.256;2023-04-24T11:12:03;0.30;;;0.30;;
12177;SDS011;6152;48.728;9.256;2023-04-24T11:17:30;0.75;;;0.30;;
12177;SDS011;6152;48.728;9.256;2023-04-24T11:20:05;1.08;;;0.30;;
12177;SDS011;6152;48.728;9.256;2023-04-24T11:22:34;0.68;;;0.20;;
12177;SDS011;6152;48.728;9.256;2023-04-24T11:25:02;0.20;;;0.20;;
12177;SDS011;6152;48.728;9.256;2023-04-24T11:27:37;1.55;;;0.50;;
12177;SDS011;6152;48.728;9.256;2023-04-24T11:30:05;0.68;;;0.45;;
12177;SDS011;6152;48.728;9.256;2023-04-24T11:35:18;2.47;;;0.60;;
12177;SDS011;6152;48.728;9.256;2023-04-24T11:37:53;0.50;;;0.50;;
12177;SDS011;6152;48.728;9.256;2023-04-24T11:40:21;0.75;;;0.73;;
12177;SDS011;6152;48.728;9.256;2023-04-24T11:42:48;0.70;;;0.60;;
12177;SDS011;6152;48.728;9.256;2023-04-24T11:45:22;0.50;;;0.50;;
12177;SDS011;6152;48.728;9.256;2023-04-24T11:47:50;1.17;;;0.50;;
12177;SDS011;6152;48.728;9.256;2023-04-24T11:50:18;1.15;;;0.50;;
12177;SDS011;6152;48.728;9.256;2023-04-24T11:52:47;0.50;;;0.50;;
12177;SDS011;6152;48.728;9.256;2023-04-24T11:57:47;0.82;;;0.40;;
12177;SDS011;6152;48.728;9.256;2023-04-24T12:00:21;0.47;;;0.47;;
12177;SDS011;6152;48.728;9.256;2023-04-24T12:03:02;0.50;;;0.50;;
12177;SDS011;6152;48.728;9.256;2023-04-24T12:05:30;0.50;;;0.50;;
12177;SDS011;6152;48.728;9.256;2023-04-24T12:07:56;0.93;;;0.85;;
12177;SDS011;6152;48.728;9.256;2023-04-24T12:10:23;0.85;;;0.52;;
12177;SDS011;6152;48.728;9.256;2023-04-24T12:12:51;2.03;;;1.27;;
12177;SDS011;6152;48.728;9.256;2023-04-24T12:15:18;0.88;;;0.32;;
12177;SDS011;6152;48.728;9.256;2023-04-24T12:17:45;1.35;;;0.40;;
12177;SDS011;6152;48.728;9.256;2023-04-24T12:20:12;0.40;;;0.40;;
12177;SDS011;6152;48.728;9.256;2023-04-24T12:22:43;2.33;;;1.05;;
12177;SDS011;6152;48.728;9.256;2023-04-24T12:25:15;0.93;;;0.40;;
12177;SDS011;6152;48.728;9.256;2023-04-24T12:27:44;2.83;;;0.60;;
12177;SDS011;6152;48.728;9.256;2023-04-24T12:30:12;0.70;;;0.70;;
12177;SDS011;6152;48.728;9.256;2023-04-24T12:32:47;1.95;;;0.70;;
12177;SDS011;6152;48.728;9.256;2023-04-24T12:35:18;0.65;;;0.50;;
12177;SDS011;6152;48.728;9.256;2023-04-24T12:37:47;0.73;;;0.73;;
12177;SDS011;6152;48.728;9.256;2023-04-24T12:40:14;0.95;;;0.50;;
12177;SDS011;6152;48.728;9.256;2023-04-24T12:42:43;1.25;;;0.60;;
12177;SDS011;6152;48.728;9.256;2023-04-24T12:45:11;1.27;;;0.50;;
12177;SDS011;6152;48.728;9.256;2023-04-24T12:47:38;0.60;;;0.55;;
12177;SDS011;6152;48.728;9.256;2023-04-24T12:50:07;0.45;;;0.40;;
12177;SDS011;6152;48.728;9.256;2023-04-24T12:52:34;1.40;;;0.55;;
12177;SDS011;6152;48.728;9.256;2023-04-24T12:55:01;0.68;;;0.50;;
12177;SDS011;6152;48.728;9.256;2023-04-24T12:57:28;0.50;;;0.50;;
12177;SDS011;6152;48.728;9.256;2023-04-24T12:59:56;0.65;;;0.40;;
12177;SDS011;6152;48.728;9.256;2023-04-24T13:02:23;0.55;;;0.35;;
12177;SDS011;6152;48.728;9.256;2023-04-24T13:04:50;0.35;;;0.30;;
12177;SDS011;6152;48.728;9.256;2023-04-24T13:07:17;0.73;;;0.50;;
12177;SDS011;6152;48.728;9.256;2023-04-24T13:09:43;0.95;;;0.60;;
12177;SDS011;6152;48.728;9.256;2023-04-24T13:12:11;0.45;;;0.45;;
12177;SDS011;6152;48.728;9.256;2023-04-24T13:14:37;1.75;;;0.60;;
12177;SDS011;6152;48.728;9.256;2023-04-24T13:17:04;2.45;;;0.50;;
12177;SDS011;6152;48.728;9.256;2023-04-24T13:19:34;1.95;;;0.70;;
12177;SDS011;6152;48.728;9.256;2023-04-24T13:22:05;1.05;;;0.70;;
12177;SDS011;6152;48.728;9.256;2023-04-24T13:24:32;1.05;;;0.68;;
12177;SDS011;6152;48.728;9.256;2023-04-24T13:26:58;1.08;;;0.52;;
12177;SDS011;6152;48.728;9.256;2023-04-24T13:29:25;1.08;;;0.80;;
12177;SDS011;6152;48.728;9.256;2023-04-24T13:31:52;0.90;;;0.90;;
12177;SDS011;6152;48.728;9.256;2023-04-24T13:34:20;1.08;;;0.70;;
12177;SDS011;6152;48.728;9.256;2023-04-24T13:36:46;1.05;;;0.70;;
12177;SDS011;6152;48.728;9.256;2023-04-24T13:39:13;1.80;;;0.70;;
12177;SDS011;6152;48.728;9.256;2023-04-24T13:41:39;0.70;;;0.70;;
12177;SDS011;6152;48.728;9.256;2023-04-24T13:44:05;0.60;;;0.60;;
12177;SDS011;6152;48.728;9.256;2023-04-24T13:46:31;1.13;;;0.50;;
12177;SDS011;6152;48.728;9.256;2023-04-24T13:48:58;1.98;;;0.70;;
12177;SDS011;6152;48.728;9.256;2023-04-24T13:51:25;0.50;;;0.50;;
12177;SDS011;6152;48.728;9.256;2023-04-24T13:53:54;1.85;;;0.65;;
12177;SDS011;6152;48.728;9.256;2023-04-24T13:56:20;0.68;;;0.65;;
12177;SDS011;6152;48.728;9.256;2023-04-24T13:58:47;1.27;;;0.70;;
12177;SDS011;6152;48.728;9.256;2023-04-24T14:01:13;1.02;;;0.80;;
12177;SDS011;6152;48.728;9.256;2023-04-24T14:03:41;0.93;;;0.65;;
12177;SDS011;6152;48.728;9.256;2023-04-24T14:06:08;0.75;;;0.70;;
12177;SDS011;6152;48.728;9.256;2023-04-24T14:08:34;2.13;;;0.80;;
12177;SDS011;6152;48.728;9.256;2023-04-24T14:11:00;0.50;;;0.50;;
12177;SDS011;6152;48.728;9.256;2023-04-24T14:13:26;0.60;;;0.60;;
12177;SDS011;6152;48.728;9.256;2023-04-24T14:15:53;0.70;;;0.70;;
12177;SDS011;6152;48.728;9.256;2023-04-24T14:18:19;0.45;;;0.45;;
12177;SDS011;6152;48.728;9.256;2023-04-24T14:20:45;0.75;;;0.75;;
12177;SDS011;6152;48.728;9.256;2023-04-24T14:23:11;3.22;;;0.80;;
12177;SDS011;6152;48.728;9.256;2023-04-24T14:25:37;0.70;;;0.70;;
12177;SDS011;6152;48.728;9.256;2023-04-24T14:28:05;1.00;;;0.95;;
12177;SDS011;6152;48.728;9.256;2023-04-24T14:30:32;0.80;;;0.80;;
12177;SDS011;6152;48.728;9.256;2023-04-24T14:32:58;0.88;;;0.80;;
12177;SDS011;6152;48.728;9.256;2023-04-24T14:35:24;0.95;;;0.47;;
12177;SDS011;6152;48.728;9.256;2023-04-24T14:37:50;0.85;;;0.70;;
12177;SDS011;6152;48.728;9.256;2023-04-24T14:40:16;0.98;;;0.98;;
12177;SDS011;6152;48.728;9.256;2023-04-24T14:42:42;0.73;;;0.73;;
12177;SDS011;6152;48.728;9.256;2023-04-24T14:45:09;0.60;;;0.60;;
12177;SDS011;6152;48.728;9.256;2023-04-24T14:47:36;1.17;;;1.00;;
12177;SDS011;6152;48.728;9.256;2023-04-24T14:50:02;1.13;;;1.02;;
12177;SDS011;6152;48.728;9.256;2023-04-24T14:52:29;1.42;;;0.95;;
12177;SDS011;6152;48.728;9.256;2023-04-24T14:54:55;1.83;;;1.20;;
12177;SDS011;6152;48.728;9.256;2023-04-24T14:57:22;1.17;;;0.90;;
12177;SDS011;6152;48.728;9.256;2023-04-24T14:59:48;1.52;;;0.90;;
12177;SDS011;6152;48.728;9.256;2023-04-24T15:02:14;1.52;;;1.00;;
12177;SDS011;6152;48.728;9.256;2023-04-24T15:04:40;2.05;;;1.00;;
12177;SDS011;6152;48.728;9.256;2023-04-24T15:07:07;2.63;;;1.02;;
12177;SDS011;6152;48.728;9.256;2023-04-24T15:09:33;2.10;;;1.30;;
12177;SDS011;6152;48.728;9.256;2023-04-24T15:11:59;1.48;;;1.20;;